createdAt,value
2022-11-16T00:04:14.661Z,15.60
2022-11-16T00:09:26.911Z,13.50
2022-11-16T00:14:33.476Z,14.75
2022-11-16T00:19:36.194Z,20.93
2022-11-16T00:24:40.389Z,18.38
2022-11-16T00:29:43.113Z,22.55
2022-11-16T00:34:45.848Z,15.63
2022-11-16T00:39:49.982Z,15.10
2022-11-16T00:44:52.797Z,18.10
2022-11-16T00:49:55.717Z,21.10
2022-11-16T00:54:59.889Z,17.50
2022-11-16T01:00:03.368Z,19.10
2022-11-16T01:05:08.199Z,20.08
2022-11-16T01:10:15.480Z,20.55
2022-11-16T01:15:19.481Z,17.17
2022-11-16T01:20:24.355Z,21.77
2022-11-16T01:25:28.567Z,19.02
2022-11-16T01:30:31.373Z,27.23
2022-11-16T01:35:43.901Z,18.45
2022-11-16T01:40:49.410Z,20.70
2022-11-16T01:45:52.512Z,23.08
2022-11-16T01:50:58.370Z,18.58
2022-11-16T01:56:03.712Z,25.17
2022-11-16T02:01:13.069Z,21.02
2022-11-16T02:06:35.519Z,19.55
2022-11-16T02:11:59.491Z,19.75
2022-11-16T02:17:10.799Z,22.15
2022-11-16T02:22:26.460Z,22.67
2022-11-16T02:27:58.422Z,28.20
2022-11-16T02:33:09.877Z,21.67
2022-11-16T02:38:18.638Z,16.60
2022-11-16T02:43:26.697Z,16.67
2022-11-16T02:48:36.805Z,14.27
2022-11-16T02:53:52.567Z,17.60
2022-11-16T02:58:56.433Z,14.98
2022-11-16T03:04:06.310Z,14.25
2022-11-16T03:09:15.523Z,11.57
2022-11-16T03:14:21.741Z,14.80
2022-11-16T03:19:30.672Z,7.53
2022-11-16T03:24:35.094Z,11.35
2022-11-16T03:29:43.568Z,11.60
2022-11-16T03:34:58.507Z,8.88
2022-11-16T03:40:05.797Z,8.18
2022-11-16T03:50:16.000Z,5.60
2022-11-16T03:55:19.589Z,5.60
2022-11-16T04:00:22.987Z,8.77
2022-11-16T04:05:48.162Z,11.43
2022-11-16T04:11:08.790Z,15.15
2022-11-16T04:16:29.641Z,14.27
2022-11-16T04:21:55.784Z,13.15
2022-11-16T04:27:23.422Z,14.30
2022-11-16T04:32:44.288Z,17.98
2022-11-16T04:37:52.464Z,16.60
2022-11-16T04:43:13.902Z,18.13
2022-11-16T04:48:20.864Z,18.50
2022-11-16T04:53:28.674Z,18.15
2022-11-16T04:58:45.186Z,15.45
2022-11-16T05:03:48.212Z,17.20
2022-11-16T05:08:52.468Z,8.85
2022-11-16T05:13:55.519Z,13.68
2022-11-16T05:19:16.309Z,8.98
2022-11-16T05:24:35.697Z,10.18
2022-11-16T05:29:40.203Z,16.97
2022-11-16T05:34:43.902Z,2.40
2022-11-16T05:39:48.086Z,1.73
2022-11-16T05:44:51.684Z,4.30
2022-11-16T05:49:54.858Z,1.77
2022-11-16T05:55:00.506Z,3.10
2022-11-16T06:00:07.587Z,4.15
2022-11-16T06:05:17.673Z,4.18
2022-11-16T06:10:23.285Z,6.40
2022-11-16T06:15:28.193Z,3.30
2022-11-16T06:20:31.227Z,2.55
2022-11-16T06:25:35.496Z,2.30
2022-11-16T06:30:39.609Z,3.00
2022-11-16T06:35:43.964Z,4.00
2022-11-16T06:40:53.044Z,7.45
2022-11-16T06:45:58.994Z,10.07
2022-11-16T06:51:02.454Z,8.38
2022-11-16T06:56:07.744Z,4.90
2022-11-16T07:01:18.345Z,13.95
2022-11-16T07:06:23.776Z,11.65
2022-11-16T07:11:28.117Z,8.63
2022-11-16T07:16:31.145Z,7.55
2022-11-16T07:21:38.181Z,19.05
2022-11-16T07:26:46.621Z,18.50
2022-11-16T07:31:53.888Z,9.77
2022-11-16T07:37:11.645Z,14.75
2022-11-16T07:42:17.270Z,29.35
2022-11-16T07:47:38.382Z,7.65
2022-11-16T07:52:46.379Z,10.30
2022-11-16T07:57:57.818Z,4.38
2022-11-16T08:03:01.686Z,8.60
2022-11-16T08:08:05.885Z,12.75
2022-11-16T08:13:13.064Z,13.25
2022-11-16T08:18:19.630Z,19.30
2022-11-16T08:23:23.144Z,6.65
2022-11-16T08:28:29.614Z,13.63
2022-11-16T08:33:32.426Z,8.32
2022-11-16T08:38:36.267Z,9.60
2022-11-16T08:43:41.441Z,6.38
2022-11-16T08:48:45.982Z,10.48
2022-11-16T08:53:49.608Z,13.98
2022-11-16T08:58:58.828Z,9.98
2022-11-16T09:04:02.135Z,12.80
2022-11-16T09:09:05.710Z,3.92
2022-11-16T09:14:10.173Z,8.65
2022-11-16T09:19:13.016Z,10.63
2022-11-16T09:24:15.928Z,18.15
2022-11-16T09:29:20.053Z,12.65
2022-11-16T09:34:23.768Z,8.90
2022-11-16T09:39:31.027Z,18.70
2022-11-16T09:44:56.498Z,13.68
2022-11-16T09:50:05.126Z,13.05
2022-11-16T09:55:26.636Z,18.05
2022-11-16T10:00:32.811Z,18.75
2022-11-16T10:05:44.804Z,18.10
2022-11-16T10:10:55.794Z,22.05
2022-11-16T10:16:07.884Z,11.88
2022-11-16T10:21:28.760Z,11.93
2022-11-16T10:26:43.210Z,12.98
2022-11-16T10:31:59.410Z,11.07
2022-11-16T10:37:08.355Z,10.25
2022-11-16T10:42:14.395Z,22.25
2022-11-16T10:47:23.390Z,10.43
2022-11-16T10:52:26.179Z,11.68
2022-11-16T10:57:56.785Z,16.80
2022-11-16T11:03:01.199Z,11.30
2022-11-16T11:08:06.276Z,13.82
2022-11-16T11:13:26.178Z,16.00
2022-11-16T11:18:30.283Z,13.43
2022-11-16T11:23:41.463Z,15.57
2022-11-16T11:28:50.954Z,10.85
2022-11-16T11:33:56.704Z,20.58
2022-11-16T11:39:01.924Z,14.18
2022-11-16T11:44:07.716Z,13.80
2022-11-16T11:49:17.542Z,18.52
2022-11-16T11:54:27.879Z,12.70
2022-11-16T11:59:32.102Z,7.28
2022-11-16T12:05:03.499Z,14.05
2022-11-16T12:10:16.818Z,23.75
2022-11-16T12:15:38.900Z,13.32
2022-11-16T12:20:50.125Z,10.48
2022-11-16T12:26:02.257Z,9.68
2022-11-16T12:31:27.913Z,10.48
2022-11-16T12:36:40.607Z,15.35
2022-11-16T12:42:04.897Z,16.83
2022-11-16T12:47:18.903Z,17.15
2022-11-16T12:52:37.164Z,8.23
2022-11-16T12:57:48.935Z,14.55
2022-11-16T13:03:15.908Z,17.83
2022-11-16T13:08:33.806Z,16.70
2022-11-16T13:13:37.689Z,11.38
2022-11-16T13:18:44.016Z,8.38
2022-11-16T13:23:56.756Z,9.87
2022-11-16T13:29:09.397Z,12.80
2022-11-16T13:34:25.692Z,14.32
2022-11-16T13:40:00.917Z,9.53
2022-11-16T13:45:09.784Z,11.90
2022-11-16T13:50:20.490Z,12.10
2022-11-16T13:55:30.792Z,21.50
2022-11-16T14:00:37.060Z,10.45
2022-11-16T14:05:43.278Z,19.07
2022-11-16T14:11:02.338Z,11.23
2022-11-16T14:16:47.967Z,13.13
2022-11-16T14:22:03.218Z,11.38
2022-11-16T14:27:16.078Z,12.77
2022-11-16T14:32:22.912Z,10.35
2022-11-16T14:37:34.741Z,10.27
2022-11-16T14:43:10.033Z,7.50
2022-11-16T14:48:17.020Z,21.00
2022-11-16T14:53:21.423Z,9.32
2022-11-16T14:58:24.999Z,11.55
2022-11-16T15:03:32.633Z,26.10
2022-11-16T15:08:39.969Z,13.50
2022-11-16T15:13:46.562Z,9.35
2022-11-16T15:18:59.762Z,19.75
2022-11-16T15:29:27.178Z,26.60
2022-11-16T15:34:30.115Z,19.77
2022-11-16T15:39:37.085Z,14.48
2022-11-16T15:44:40.420Z,11.95
2022-11-16T15:49:45.051Z,19.83
2022-11-16T15:55:04.766Z,43.38
2022-11-16T16:00:22.725Z,48.53
2022-11-16T16:05:34.845Z,24.88
2022-11-16T16:10:39.004Z,10.07
2022-11-16T16:15:41.865Z,19.92
2022-11-16T16:20:48.812Z,32.80
2022-11-16T16:25:52.962Z,43.38
2022-11-16T16:30:55.757Z,28.80
2022-11-16T16:35:58.608Z,22.98
2022-11-16T16:41:04.880Z,25.05
2022-11-16T16:46:08.204Z,24.10
2022-11-16T16:51:13.125Z,21.40
2022-11-16T16:56:19.723Z,15.95
2022-11-16T17:01:22.591Z,27.20
2022-11-16T17:06:25.491Z,31.42
2022-11-16T17:11:29.917Z,24.98
2022-11-16T17:16:33.496Z,23.17
2022-11-16T17:21:36.646Z,30.95
2022-11-16T17:26:41.684Z,32.00
2022-11-16T17:31:44.872Z,34.55
2022-11-16T17:36:47.770Z,27.58
2022-11-16T17:41:51.953Z,20.35
2022-11-16T17:46:54.786Z,34.10
2022-11-16T17:51:57.561Z,32.55
2022-11-16T17:57:01.797Z,133.73
2022-11-16T18:02:04.742Z,58.58
2022-11-16T18:07:07.547Z,55.13
2022-11-16T18:12:11.688Z,63.47
2022-11-16T18:17:14.518Z,45.28
2022-11-16T18:22:17.843Z,48.47
2022-11-16T18:27:22.030Z,19.83
2022-11-16T18:32:24.801Z,20.90
2022-11-16T18:37:27.558Z,13.65
2022-11-16T18:42:31.945Z,18.05
2022-11-16T18:47:35.053Z,18.60
2022-11-16T18:52:37.797Z,18.48
2022-11-16T18:57:41.983Z,19.45
2022-11-16T19:02:44.750Z,24.05
2022-11-16T19:07:47.585Z,25.75
2022-11-16T19:12:51.734Z,25.75
2022-11-16T19:18:19.920Z,16.33
2022-11-16T19:23:17.330Z,12.57
2022-11-16T19:28:21.393Z,23.33
2022-11-16T19:33:24.088Z,18.38
2022-11-16T19:38:26.826Z,28.98
2022-11-16T19:43:31.102Z,27.50
2022-11-16T19:48:34.653Z,27.25
2022-11-16T19:53:38.113Z,22.77
2022-11-16T19:58:43.039Z,21.73
2022-11-16T20:03:46.306Z,21.95
2022-11-16T20:08:50.507Z,29.55
2022-11-16T20:13:56.249Z,19.65
2022-11-16T20:18:59.364Z,20.02
2022-11-16T20:24:06.808Z,28.80
2022-11-16T20:29:12.940Z,19.73
2022-11-16T20:34:17.496Z,22.33
2022-11-16T20:39:21.739Z,20.35
2022-11-16T20:44:25.818Z,35.25
2022-11-16T20:49:28.836Z,22.23
2022-11-16T20:54:32.042Z,17.92
2022-11-16T20:59:36.118Z,26.45
2022-11-16T21:04:38.889Z,16.52
2022-11-16T21:09:55.532Z,32.88
2022-11-16T21:14:59.656Z,26.17
2022-11-16T21:20:26.441Z,32.95
2022-11-16T21:25:26.751Z,14.70
2022-11-16T21:30:30.876Z,19.92
2022-11-16T21:35:33.653Z,14.18
2022-11-16T21:40:36.451Z,22.40
2022-11-16T21:45:40.627Z,22.60
2022-11-16T21:50:44.045Z,19.50
2022-11-16T21:55:49.864Z,22.50
2022-11-16T22:00:56.533Z,29.80
2022-11-16T22:06:18.842Z,19.38
2022-11-16T22:11:22.239Z,21.25
2022-11-16T22:16:26.526Z,27.90
2022-11-16T22:21:29.254Z,25.15
2022-11-16T22:26:32.037Z,17.05
2022-11-16T22:31:36.346Z,23.27
2022-11-16T22:36:39.192Z,18.30
2022-11-16T22:41:41.898Z,19.50
2022-11-16T22:46:46.106Z,12.77
2022-11-16T22:51:48.901Z,20.40
2022-11-16T22:56:51.633Z,16.15
2022-11-16T23:01:55.965Z,21.35
2022-11-16T23:06:59.140Z,23.63
2022-11-16T23:12:19.673Z,21.42
2022-11-16T23:17:23.833Z,14.93
2022-11-16T23:22:44.790Z,25.83
2022-11-16T23:27:55.116Z,16.88
2022-11-16T23:32:59.291Z,16.83
2022-11-16T23:38:03.658Z,14.57
2022-11-16T23:43:30.587Z,18.65
2022-11-16T23:48:34.664Z,21.90
2022-11-16T23:53:37.725Z,14.10
2022-11-16T23:58:40.604Z,13.95
